createdAt,value
2022-09-12T00:01:17.190Z,14.10
2022-09-12T00:03:45.341Z,14.05
2022-09-12T00:06:20.424Z,14.01
2022-09-12T00:08:50.802Z,13.95
2022-09-12T00:11:19.175Z,13.49
2022-09-12T00:13:47.040Z,13.35
2022-09-12T00:16:21.755Z,13.28
2022-09-12T00:18:49.958Z,13.15
2022-09-12T00:21:19.192Z,13.29
2022-09-12T00:23:47.986Z,13.28
2022-09-12T00:26:17.141Z,13.66
2022-09-12T00:28:45.888Z,13.81
2022-09-12T00:31:16.197Z,13.99
2022-09-12T00:33:45.945Z,14.11
2022-09-12T00:36:15.888Z,14.14
2022-09-12T00:38:44.176Z,14.31
2022-09-12T00:41:17.087Z,14.14
2022-09-12T00:43:46.727Z,14.39
2022-09-12T00:46:23.520Z,14.36
2022-09-12T00:48:57.826Z,14.27
2022-09-12T00:51:25.671Z,14.27
2022-09-12T00:53:56.176Z,14.38
2022-09-12T00:56:25.396Z,14.46
2022-09-12T00:58:58.970Z,14.43
2022-09-12T01:01:31.742Z,14.24
2022-09-12T01:04:02.706Z,14.27
2022-09-12T01:06:36.878Z,14.42
2022-09-12T01:09:05.536Z,14.40
2022-09-12T01:11:35.407Z,14.13
2022-09-12T01:14:03.292Z,14.28
2022-09-12T01:16:31.190Z,14.04
2022-09-12T01:19:15.294Z,14.08
2022-09-12T01:21:52.689Z,14.21
2022-09-12T01:24:51.471Z,14.15
2022-09-12T01:27:44.662Z,14.09
2022-09-12T01:30:42.147Z,14.20
2022-09-12T01:33:35.123Z,14.13
2022-09-12T01:36:17.300Z,14.20
2022-09-12T01:38:55.008Z,14.23
2022-09-12T01:41:28.007Z,14.19
2022-09-12T01:44:03.407Z,14.08
2022-09-12T01:46:40.185Z,13.64
2022-09-12T01:49:13.245Z,13.56
2022-09-12T01:51:46.429Z,13.61
2022-09-12T01:54:20.669Z,13.39
2022-09-12T01:56:53.484Z,13.46
2022-09-12T01:59:26.644Z,13.35
2022-09-12T02:02:02.218Z,13.23
2022-09-12T02:04:34.554Z,13.54
2022-09-12T02:07:08.678Z,13.82
2022-09-12T02:09:41.764Z,13.84
2022-09-12T02:12:13.017Z,14.00
2022-09-12T02:14:46.451Z,14.02
2022-09-12T02:17:20.365Z,14.07
2022-09-12T02:19:53.061Z,13.80
2022-09-12T02:22:23.783Z,13.47
2022-09-12T02:24:55.127Z,13.22
2022-09-12T02:27:25.163Z,13.33
2022-09-12T02:29:53.334Z,13.02
2022-09-12T02:32:30.882Z,12.82
2022-09-12T02:35:06.932Z,12.60
2022-09-12T02:37:51.124Z,12.57
2022-09-12T02:40:19.590Z,12.48
2022-09-12T02:42:47.439Z,12.42
2022-09-12T02:45:15.323Z,12.45
2022-09-12T02:47:49.758Z,12.40
2022-09-12T02:50:17.860Z,12.50
2022-09-12T02:52:46.356Z,12.38
2022-09-12T02:55:16.333Z,12.37
2022-09-12T02:57:44.277Z,12.37
2022-09-12T03:00:14.038Z,12.34
2022-09-12T03:02:59.552Z,12.52
2022-09-12T03:05:32.670Z,12.41
2022-09-12T03:08:27.433Z,12.43
2022-09-12T03:11:21.992Z,12.33
2022-09-12T03:14:01.919Z,12.24
2022-09-12T03:16:39.964Z,12.27
2022-09-12T03:19:19.851Z,12.23
2022-09-12T03:21:59.493Z,12.20
2022-09-12T03:24:33.014Z,12.17
2022-09-12T03:27:08.588Z,12.18
2022-09-12T03:29:37.937Z,12.20
2022-09-12T03:32:05.733Z,12.12
2022-09-12T03:34:34.915Z,12.13
2022-09-12T03:37:02.795Z,12.19
2022-09-12T03:39:30.969Z,12.11
2022-09-12T03:41:58.915Z,12.11
2022-09-12T03:44:27.117Z,12.10
2022-09-12T03:46:55.197Z,12.05
2022-09-12T03:49:23.033Z,12.16
2022-09-12T03:51:52.125Z,12.27
2022-09-12T03:54:19.864Z,12.51
2022-09-12T03:56:47.660Z,12.48
2022-09-12T03:59:15.431Z,12.41
2022-09-12T04:01:43.190Z,12.77
2022-09-12T04:04:10.978Z,12.94
2022-09-12T04:06:38.734Z,13.24
2022-09-12T04:09:07.814Z,13.15
2022-09-12T04:11:35.813Z,13.23
2022-09-12T04:14:03.567Z,13.43
2022-09-12T04:16:32.247Z,13.47
2022-09-12T04:19:00.319Z,13.39
2022-09-12T04:21:28.481Z,13.38
2022-09-12T04:23:56.356Z,13.42
2022-09-12T04:26:25.531Z,13.39
2022-09-12T04:28:57.515Z,13.15
2022-09-12T04:31:26.371Z,12.70
2022-09-12T04:33:55.090Z,12.76
2022-09-12T04:36:23.371Z,12.74
2022-09-12T04:38:51.586Z,12.43
2022-09-12T04:41:21.808Z,12.30
2022-09-12T04:43:54.051Z,12.14
2022-09-12T04:46:22.285Z,12.10
2022-09-12T04:48:53.385Z,12.40
2022-09-12T04:51:27.647Z,12.57
2022-09-12T04:53:57.556Z,12.90
2022-09-12T04:56:26.304Z,12.99
2022-09-12T04:58:55.700Z,13.16
2022-09-12T05:01:23.873Z,13.21
2022-09-12T05:03:52.512Z,13.40
2022-09-12T05:06:22.318Z,13.43
2022-09-12T05:08:50.312Z,13.39
2022-09-12T05:11:24.563Z,13.55
2022-09-12T05:13:54.941Z,13.53
2022-09-12T05:16:23.917Z,13.56
2022-09-12T05:18:51.749Z,13.51
2022-09-12T05:21:23.062Z,13.48
2022-09-12T05:23:52.914Z,13.46
2022-09-12T05:26:21.655Z,13.44
2022-09-12T05:28:50.633Z,13.50
2022-09-12T05:31:21.870Z,13.50
2022-09-12T05:33:51.536Z,13.66
2022-09-12T05:36:21.120Z,13.67
2022-09-12T05:38:49.420Z,13.60
2022-09-12T05:41:23.007Z,13.63
2022-09-12T05:43:54.150Z,13.68
2022-09-12T05:46:26.201Z,13.53
2022-09-12T05:48:56.674Z,13.61
2022-09-12T05:51:26.932Z,13.66
2022-09-12T05:53:56.622Z,13.56
2022-09-12T05:56:26.478Z,13.68
2022-09-12T05:58:56.370Z,13.55
2022-09-12T06:01:27.138Z,13.67
2022-09-12T06:03:56.705Z,13.46
2022-09-12T06:06:26.269Z,13.31
2022-09-12T06:08:57.857Z,13.29
2022-09-12T06:11:28.269Z,13.52
2022-09-12T06:13:56.798Z,13.57
2022-09-12T06:16:28.075Z,13.66
2022-09-12T06:18:58.016Z,13.90
2022-09-12T06:21:28.326Z,13.98
2022-09-12T06:23:56.952Z,14.12
2022-09-12T06:26:25.699Z,14.22
2022-09-12T06:28:55.696Z,14.23
2022-09-12T06:31:27.227Z,14.24
2022-09-12T06:33:56.242Z,14.34
2022-09-12T06:36:26.414Z,14.36
2022-09-12T06:39:00.897Z,14.41
2022-09-12T06:41:29.981Z,14.56
2022-09-12T06:43:58.670Z,14.64
2022-09-12T06:46:28.566Z,14.60
2022-09-12T06:48:57.226Z,14.62
2022-09-12T06:51:25.459Z,14.73
2022-09-12T06:53:56.482Z,14.61
2022-09-12T06:56:26.482Z,14.73
2022-09-12T06:58:56.708Z,14.85
2022-09-12T07:01:27.977Z,14.92
2022-09-12T07:03:57.521Z,14.99
2022-09-12T07:06:31.547Z,15.08
2022-09-12T07:09:00.465Z,15.12
2022-09-12T07:11:31.662Z,15.07
2022-09-12T07:14:00.952Z,14.95
2022-09-12T07:16:30.962Z,14.92
2022-09-12T07:19:00.756Z,14.88
2022-09-12T07:21:29.988Z,15.08
2022-09-12T07:23:58.782Z,15.20
2022-09-12T07:26:28.248Z,15.22
2022-09-12T07:29:12.728Z,15.20
2022-09-12T07:31:47.429Z,15.33
2022-09-12T07:34:15.354Z,15.34
2022-09-12T07:36:43.322Z,15.43
2022-09-12T07:39:12.338Z,15.57
2022-09-12T07:41:40.345Z,15.73
2022-09-12T07:44:08.334Z,15.64
2022-09-12T07:46:36.435Z,15.59
2022-09-12T07:49:05.595Z,15.67
2022-09-12T07:51:33.509Z,15.81
2022-09-12T07:54:01.471Z,15.61
2022-09-12T07:56:32.754Z,15.67
2022-09-12T07:59:02.449Z,15.87
2022-09-12T08:01:31.135Z,16.01
2022-09-12T08:04:00.181Z,15.80
2022-09-12T08:06:32.155Z,15.75
2022-09-12T08:09:00.673Z,15.94
2022-09-12T08:11:30.063Z,15.94
2022-09-12T08:13:58.685Z,16.15
2022-09-12T08:16:28.270Z,16.06
2022-09-12T08:18:56.819Z,16.24
2022-09-12T08:21:26.439Z,16.35
2022-09-12T08:23:57.614Z,16.39
2022-09-12T08:26:26.420Z,16.48
2022-09-12T08:28:54.887Z,16.77
2022-09-12T08:31:24.659Z,16.81
2022-09-12T08:33:53.351Z,16.94
2022-09-12T08:36:22.732Z,16.95
2022-09-12T08:38:56.294Z,16.69
2022-09-12T08:41:31.865Z,16.93
2022-09-12T08:44:33.173Z,16.88
2022-09-12T08:47:21.122Z,16.97
2022-09-12T08:49:56.868Z,17.05
2022-09-12T08:52:30.034Z,17.01
2022-09-12T08:54:58.324Z,17.00
2022-09-12T08:57:27.515Z,17.06
2022-09-12T08:59:55.839Z,17.16
2022-09-12T09:02:38.860Z,17.27
2022-09-12T09:05:20.100Z,17.48
2022-09-12T09:08:10.701Z,17.67
2022-09-12T09:10:48.811Z,17.86
2022-09-12T09:13:49.134Z,17.87
2022-09-12T09:16:25.494Z,17.93
2022-09-12T09:18:55.806Z,18.02
2022-09-12T09:21:31.038Z,17.96
2022-09-12T09:24:05.895Z,17.92
2022-09-12T09:26:43.029Z,18.08
2022-09-12T09:29:18.677Z,17.93
2022-09-12T09:31:49.592Z,17.88
2022-09-12T09:34:22.425Z,17.83
2022-09-12T09:36:52.590Z,17.76
2022-09-12T09:39:32.394Z,17.80
2022-09-12T09:42:12.698Z,17.77
2022-09-12T09:44:44.069Z,17.81
2022-09-12T09:47:13.592Z,18.18
2022-09-12T09:49:42.675Z,17.93
2022-09-12T09:52:15.982Z,18.34
2022-09-12T09:54:49.667Z,18.53
2022-09-12T09:57:43.042Z,18.45
2022-09-12T10:00:37.099Z,18.47
2022-09-12T10:03:22.233Z,18.66
2022-09-12T10:05:52.059Z,18.36
2022-09-12T10:08:26.362Z,18.36
2022-09-12T10:10:58.071Z,18.62
2022-09-12T10:13:33.609Z,18.02
2022-09-12T10:16:05.590Z,18.27
2022-09-12T10:18:43.462Z,18.26
2022-09-12T10:21:32.051Z,18.51
2022-09-12T10:24:04.784Z,18.78
2022-09-12T10:26:36.820Z,18.94
2022-09-12T10:29:13.916Z,19.17
2022-09-12T10:31:51.847Z,19.49
2022-09-12T10:34:31.249Z,19.50
2022-09-12T10:37:05.889Z,19.79
2022-09-12T10:39:36.555Z,20.11
2022-09-12T10:42:05.648Z,20.38
2022-09-12T10:44:35.481Z,20.29
2022-09-12T10:47:24.005Z,19.84
2022-09-12T10:49:52.089Z,20.10
2022-09-12T10:52:24.382Z,20.11
2022-09-12T10:54:52.668Z,20.51
2022-09-12T10:57:54.161Z,20.83
2022-09-12T11:00:28.059Z,20.48
2022-09-12T11:03:10.801Z,21.86
2022-09-12T11:05:54.935Z,22.17
2022-09-12T11:08:53.776Z,23.11
2022-09-12T11:11:40.924Z,22.80
2022-09-12T11:14:21.670Z,22.33
2022-09-12T11:16:57.090Z,23.74
2022-09-12T11:19:43.205Z,22.56
2022-09-12T11:22:29.848Z,21.62
2022-09-12T11:25:15.416Z,20.71
2022-09-12T11:28:04.160Z,20.74
2022-09-12T11:30:40.193Z,21.16
2022-09-12T11:33:24.331Z,21.32
2022-09-12T11:35:57.617Z,21.27
2022-09-12T11:38:51.419Z,21.32
2022-09-12T11:41:25.309Z,21.16
2022-09-12T11:43:58.877Z,21.02
2022-09-12T11:46:34.825Z,20.84
2022-09-12T11:49:13.591Z,21.59
2022-09-12T11:51:49.616Z,22.27
2022-09-12T11:54:25.514Z,21.26
2022-09-12T11:57:06.749Z,21.68
2022-09-12T11:59:44.373Z,21.98
2022-09-12T12:02:15.813Z,22.84
2022-09-12T12:05:01.570Z,22.15
2022-09-12T12:07:45.187Z,23.70
2022-09-12T12:10:27.176Z,25.12
2022-09-12T12:12:58.540Z,24.80
2022-09-12T12:15:28.346Z,24.79
2022-09-12T12:18:09.600Z,27.08
2022-09-12T12:20:38.029Z,25.30
2022-09-12T12:23:08.257Z,25.54
2022-09-12T12:25:42.933Z,26.34
2022-09-12T12:28:11.239Z,24.26
2022-09-12T12:31:02.319Z,25.73
2022-09-12T12:34:09.983Z,25.80
2022-09-12T12:36:43.495Z,27.45
2022-09-12T12:39:45.722Z,27.29
2022-09-12T12:43:07.998Z,26.62
2022-09-12T12:46:06.205Z,26.25
2022-09-12T12:48:51.917Z,25.03
2022-09-12T12:51:55.998Z,25.11
2022-09-12T12:54:50.663Z,25.57
2022-09-12T12:57:24.375Z,24.55
2022-09-12T12:59:54.947Z,25.03
2022-09-12T13:02:29.591Z,25.00
2022-09-12T13:04:59.615Z,25.43
2022-09-12T13:07:32.372Z,24.46
2022-09-12T13:10:01.587Z,24.22
2022-09-12T13:12:33.847Z,23.73
2022-09-12T13:15:03.466Z,24.48
2022-09-12T13:17:38.816Z,24.54
2022-09-12T13:20:29.187Z,23.66
2022-09-12T13:22:58.617Z,23.45
2022-09-12T13:25:31.009Z,22.99
2022-09-12T13:28:02.694Z,23.42
2022-09-12T13:30:33.555Z,22.76
2022-09-12T13:33:11.872Z,22.58
2022-09-12T13:35:51.217Z,22.50
2022-09-12T13:38:29.046Z,22.26
2022-09-12T13:41:16.209Z,22.53
2022-09-12T13:43:46.888Z,22.72
2022-09-12T13:46:19.355Z,22.12
2022-09-12T13:48:49.201Z,21.94
2022-09-12T13:51:25.184Z,21.75
2022-09-12T13:53:56.234Z,21.81
2022-09-12T13:56:24.382Z,21.85
2022-09-12T13:58:55.517Z,21.82
2022-09-12T14:01:24.533Z,21.64
2022-09-12T14:04:13.117Z,21.69
2022-09-12T14:06:49.482Z,21.61
2022-09-12T14:09:25.371Z,21.45
2022-09-12T14:11:54.519Z,21.31
2022-09-12T14:14:31.332Z,21.56
2022-09-12T14:17:00.525Z,21.51
2022-09-12T14:19:30.135Z,21.58
2022-09-12T14:21:58.403Z,21.68
2022-09-12T14:24:26.663Z,21.58
2022-09-12T14:26:57.660Z,21.61
2022-09-12T14:29:26.273Z,21.44
2022-09-12T14:32:05.802Z,21.36
2022-09-12T14:34:35.959Z,21.41
2022-09-12T14:37:08.494Z,21.24
2022-09-12T14:39:40.654Z,21.22
2022-09-12T14:42:16.347Z,20.99
2022-09-12T14:44:54.816Z,21.06
2022-09-12T14:47:25.490Z,20.90
2022-09-12T14:49:55.725Z,20.89
2022-09-12T14:52:27.647Z,20.83
2022-09-12T14:55:01.540Z,20.81
2022-09-12T14:57:36.710Z,20.98
2022-09-12T15:00:20.876Z,21.05
2022-09-12T15:02:49.455Z,21.02
2022-09-12T15:05:29.460Z,20.73
2022-09-12T15:08:00.490Z,21.12
2022-09-12T15:10:32.279Z,21.26
2022-09-12T15:13:21.765Z,20.98
2022-09-12T15:15:52.821Z,20.78
2022-09-12T15:18:23.424Z,20.59
2022-09-12T15:20:54.192Z,20.67
2022-09-12T15:23:32.103Z,20.87
2022-09-12T15:26:00.327Z,20.91
2022-09-12T15:28:28.907Z,20.76
2022-09-12T15:30:57.736Z,20.66
2022-09-12T15:33:26.359Z,20.74
2022-09-12T15:35:55.559Z,20.60
2022-09-12T15:38:26.514Z,20.53
2022-09-12T15:40:55.009Z,20.62
2022-09-12T15:43:23.572Z,20.73
2022-09-12T15:45:52.330Z,20.45
2022-09-12T15:48:21.139Z,20.30
2022-09-12T15:50:49.153Z,20.20
2022-09-12T15:53:18.620Z,20.20
2022-09-12T15:55:46.541Z,20.11
2022-09-12T15:58:14.412Z,20.14
2022-09-12T16:00:42.197Z,19.97
2022-09-12T16:03:22.755Z,19.92
2022-09-12T16:05:51.084Z,19.78
2022-09-12T16:08:20.251Z,19.76
2022-09-12T16:10:50.588Z,19.61
2022-09-12T16:13:18.368Z,19.60
2022-09-12T16:15:46.426Z,19.72
2022-09-12T16:18:14.246Z,19.58
2022-09-12T16:20:42.197Z,19.40
2022-09-12T16:23:11.915Z,19.48
2022-09-12T16:25:41.460Z,19.42
2022-09-12T16:28:09.750Z,19.43
2022-09-12T16:30:37.572Z,19.44
2022-09-12T16:33:05.424Z,19.35
2022-09-12T16:35:33.616Z,19.18
2022-09-12T16:38:01.988Z,19.09
2022-09-12T16:40:31.066Z,19.13
2022-09-12T16:43:00.399Z,19.04
2022-09-12T16:45:28.239Z,19.02
2022-09-12T16:47:56.141Z,19.05
2022-09-12T16:50:23.912Z,18.88
2022-09-12T16:52:51.858Z,18.84
2022-09-12T16:55:19.873Z,19.10
2022-09-12T16:57:49.321Z,19.23
2022-09-12T17:00:19.321Z,19.00
2022-09-12T17:02:48.343Z,18.80
2022-09-12T17:05:17.240Z,18.75
2022-09-12T17:07:46.066Z,18.72
2022-09-12T17:10:14.008Z,18.69
2022-09-12T17:12:41.825Z,18.63
2022-09-12T17:15:12.703Z,18.52
2022-09-12T17:17:41.967Z,18.47
2022-09-12T17:20:10.109Z,18.47
2022-09-12T17:22:38.102Z,18.38
2022-09-12T17:25:06.832Z,18.35
2022-09-12T17:27:34.697Z,18.24
2022-09-12T17:30:02.540Z,18.20
2022-09-12T17:32:30.544Z,18.16
2022-09-12T17:35:00.075Z,18.06
2022-09-12T17:37:28.134Z,18.00
2022-09-12T17:39:56.160Z,18.06
2022-09-12T17:42:24.343Z,17.90
2022-09-12T17:44:52.950Z,17.82
2022-09-12T17:47:20.776Z,17.74
2022-09-12T17:49:50.527Z,17.67
2022-09-12T17:52:19.730Z,17.66
2022-09-12T17:54:47.515Z,17.55
2022-09-12T17:57:15.539Z,17.44
2022-09-12T17:59:43.437Z,17.44
2022-09-12T18:02:13.267Z,17.41
2022-09-12T18:04:41.838Z,17.28
2022-09-12T18:07:09.873Z,17.26
2022-09-12T18:09:39.099Z,17.18
2022-09-12T18:12:07.318Z,17.14
2022-09-12T18:14:35.209Z,17.12
2022-09-12T18:17:03.122Z,17.15
2022-09-12T18:19:31.965Z,17.09
2022-09-12T18:21:59.848Z,17.02
2022-09-12T18:24:27.932Z,17.00
2022-09-12T18:26:57.626Z,16.99
2022-09-12T18:29:27.687Z,16.94
2022-09-12T18:31:56.251Z,16.84
2022-09-12T18:34:24.210Z,16.81
2022-09-12T18:36:54.307Z,16.76
2022-09-12T18:39:27.685Z,16.71
2022-09-12T18:41:58.102Z,16.69
2022-09-12T18:44:26.047Z,16.67
2022-09-12T18:46:54.402Z,16.70
2022-09-12T18:49:22.275Z,16.72
2022-09-12T18:51:50.481Z,16.64
2022-09-12T18:54:19.169Z,16.57
2022-09-12T18:56:47.671Z,16.53
2022-09-12T18:59:17.387Z,16.51
2022-09-12T19:01:47.278Z,16.39
2022-09-12T19:04:16.325Z,16.23
2022-09-12T19:06:47.030Z,16.19
2022-09-12T19:09:16.870Z,16.15
2022-09-12T19:11:49.485Z,16.08
2022-09-12T19:14:22.516Z,16.06
2022-09-12T19:16:52.098Z,16.09
2022-09-12T19:19:21.906Z,16.00
2022-09-12T19:21:50.111Z,16.05
2022-09-12T19:24:18.540Z,15.76
2022-09-12T19:26:47.145Z,15.73
2022-09-12T19:29:18.569Z,15.63
2022-09-12T19:31:48.325Z,15.68
2022-09-12T19:34:17.411Z,15.68
2022-09-12T19:36:47.137Z,15.64
2022-09-12T19:39:16.800Z,15.60
2022-09-12T19:41:45.392Z,15.60
2022-09-12T19:44:13.686Z,15.57
2022-09-12T19:46:41.966Z,15.44
2022-09-12T19:49:13.335Z,15.33
2022-09-12T19:51:41.703Z,15.24
2022-09-12T19:54:09.880Z,15.27
2022-09-12T19:56:37.717Z,15.11
2022-09-12T19:59:05.819Z,15.16
2022-09-12T20:01:34.687Z,15.11
2022-09-12T20:04:03.409Z,15.15
2022-09-12T20:06:32.768Z,15.06
2022-09-12T20:09:00.680Z,14.96
2022-09-12T20:11:31.410Z,14.93
2022-09-12T20:13:59.291Z,14.90
2022-09-12T20:16:30.061Z,14.86
2022-09-12T20:19:00.417Z,14.84
2022-09-12T20:21:31.674Z,14.83
2022-09-12T20:24:06.577Z,14.85
2022-09-12T20:26:35.016Z,14.78
2022-09-12T20:29:03.626Z,14.77
2022-09-12T20:31:32.066Z,14.71
2022-09-12T20:34:00.570Z,14.71
2022-09-12T20:36:29.026Z,14.71
2022-09-12T20:39:01.327Z,14.70
2022-09-12T20:41:35.658Z,14.62
2022-09-12T20:44:03.739Z,14.63
2022-09-12T20:46:31.919Z,14.63
2022-09-12T20:49:00.254Z,14.50
2022-09-12T20:51:30.339Z,14.49
2022-09-12T20:53:59.720Z,14.49
2022-09-12T20:56:31.701Z,14.52
2022-09-12T20:59:00.554Z,14.53
2022-09-12T21:01:29.673Z,14.43
2022-09-12T21:03:59.564Z,14.39
2022-09-12T21:06:31.275Z,14.33
2022-09-12T21:08:59.811Z,14.34
2022-09-12T21:11:28.567Z,14.25
2022-09-12T21:13:58.826Z,14.19
2022-09-12T21:16:27.114Z,14.12
2022-09-12T21:18:56.482Z,14.26
2022-09-12T21:21:25.481Z,14.18
2022-09-12T21:23:55.342Z,14.12
2022-09-12T21:26:23.215Z,14.08
2022-09-12T21:28:51.093Z,14.07
2022-09-12T21:31:20.413Z,14.00
2022-09-12T21:33:49.088Z,13.98
2022-09-12T21:36:17.053Z,14.00
2022-09-12T21:38:45.412Z,14.08
2022-09-12T21:41:15.422Z,14.04
2022-09-12T21:43:43.875Z,14.02
2022-09-12T21:46:14.302Z,13.95
2022-09-12T21:48:43.644Z,14.03
2022-09-12T21:51:11.546Z,14.22
2022-09-12T21:53:39.396Z,13.97
2022-09-12T21:56:09.504Z,13.95
2022-09-12T21:58:38.361Z,14.00
2022-09-12T22:01:08.568Z,13.97
2022-09-12T22:03:36.637Z,14.01
2022-09-12T22:06:08.729Z,13.95
2022-09-12T22:08:38.866Z,13.86
2022-09-12T22:11:09.628Z,13.92
2022-09-12T22:13:39.193Z,14.01
2022-09-12T22:16:07.564Z,13.88
2022-09-12T22:18:36.047Z,13.86
2022-09-12T22:21:05.961Z,13.90
2022-09-12T22:23:52.798Z,13.78
2022-09-12T22:26:21.624Z,13.78
2022-09-12T22:28:50.296Z,13.81
2022-09-12T22:31:18.815Z,13.82
2022-09-12T22:33:46.808Z,13.77
2022-09-12T22:36:14.667Z,13.71
2022-09-12T22:38:43.914Z,13.63
2022-09-12T22:41:13.058Z,13.71
2022-09-12T22:43:41.144Z,13.78
2022-09-12T22:46:09.502Z,13.67
2022-09-12T22:48:37.729Z,13.68
2022-09-12T22:51:06.214Z,13.75
2022-09-12T22:53:34.497Z,13.69
2022-09-12T22:56:05.227Z,13.57
2022-09-12T22:58:33.246Z,13.55
2022-09-12T23:01:01.098Z,13.47
2022-09-12T23:03:29.059Z,13.64
2022-09-12T23:05:56.853Z,13.45
2022-09-12T23:08:27.383Z,13.32
2022-09-12T23:11:02.603Z,13.26
2022-09-12T23:13:30.925Z,13.26
2022-09-12T23:16:00.130Z,13.30
2022-09-12T23:18:28.380Z,13.41
2022-09-12T23:21:00.344Z,13.59
2022-09-12T23:23:28.549Z,13.39
2022-09-12T23:26:06.037Z,13.34
2022-09-12T23:28:34.581Z,13.32
2022-09-12T23:31:03.213Z,13.29
2022-09-12T23:33:32.657Z,13.28
2022-09-12T23:36:02.251Z,13.36
2022-09-12T23:38:30.882Z,13.28
2022-09-12T23:40:59.139Z,13.23
2022-09-12T23:43:28.950Z,13.22
2022-09-12T23:45:58.795Z,13.18
2022-09-12T23:48:27.448Z,13.15
2022-09-12T23:50:55.451Z,13.22
2022-09-12T23:53:23.552Z,13.17
2022-09-12T23:55:51.655Z,13.22
2022-09-12T23:58:19.787Z,13.13
